createdAt,value
2018-12-13T00:00:59.318Z,98430.98
2018-12-13T00:03:31.889Z,98432.28
2018-12-13T00:06:04.898Z,98423.78
2018-12-13T00:08:35.746Z,98427.95
2018-12-13T00:11:06.600Z,98421.20
2018-12-13T00:13:37.449Z,98422.44
2018-12-13T00:16:08.841Z,98412.80
2018-12-13T00:18:39.785Z,98412.80
2018-12-13T00:21:10.768Z,98410.73
2018-12-13T00:23:41.909Z,98411.92
2018-12-13T00:26:12.798Z,98399.98
2018-12-13T00:28:43.841Z,98397.59
2018-12-13T00:31:14.699Z,98401.16
2018-12-13T00:33:45.633Z,98397.95
2018-12-13T00:36:17.581Z,98403.95
2018-12-13T00:38:48.534Z,98396.77
2018-12-13T00:41:19.471Z,98398.73
2018-12-13T00:43:50.404Z,98395.88
2018-12-13T00:46:21.341Z,98391.06
2018-12-13T00:48:52.316Z,98390.65
2018-12-13T00:51:23.225Z,98388.66
2018-12-13T00:53:54.133Z,98383.91
2018-12-13T00:56:25.006Z,98386.23
2018-12-13T00:58:55.931Z,98393.09
2018-12-13T01:01:27.086Z,98392.21
2018-12-13T01:03:57.949Z,98382.88
2018-12-13T01:06:29.653Z,98382.80
2018-12-13T01:09:00.586Z,98387.38
2018-12-13T01:11:32.278Z,98381.83
2018-12-13T01:14:03.178Z,98383.16
2018-12-13T01:16:34.029Z,98377.19
2018-12-13T01:19:04.950Z,98382.16
2018-12-13T01:21:35.805Z,98375.91
2018-12-13T01:24:06.738Z,98374.95
2018-12-13T01:26:37.614Z,98378.39
2018-12-13T01:29:08.508Z,98385.59
2018-12-13T01:31:39.353Z,98385.01
2018-12-13T01:34:10.288Z,98377.58
2018-12-13T01:36:41.208Z,98374.69
2018-12-13T01:39:12.167Z,98372.25
2018-12-13T01:41:43.175Z,98372.92
2018-12-13T01:44:14.019Z,98370.63
2018-12-13T01:46:45.081Z,98365.35
2018-12-13T01:49:16.239Z,98361.60
2018-12-13T01:51:47.157Z,98359.56
2018-12-13T01:54:18.426Z,98355.73
2018-12-13T01:56:49.320Z,98352.72
2018-12-13T01:59:20.304Z,98353.59
2018-12-13T02:01:51.511Z,98349.69
2018-12-13T02:04:22.686Z,98339.91
2018-12-13T02:06:58.730Z,98338.95
2018-12-13T02:09:26.497Z,98332.75
2018-12-13T02:11:57.470Z,98330.48
2018-12-13T02:14:30.014Z,98334.03
2018-12-13T02:17:00.934Z,98335.04
2018-12-13T02:19:31.993Z,98331.14
2018-12-13T02:22:03.319Z,98327.00
2018-12-13T02:24:34.290Z,98327.67
2018-12-13T02:27:06.518Z,98331.44
2018-12-13T02:29:37.386Z,98323.23
2018-12-13T02:32:08.318Z,98325.55
2018-12-13T02:34:40.072Z,98324.77
2018-12-13T02:37:11.010Z,98323.66
2018-12-13T02:39:41.945Z,98318.18
2018-12-13T02:42:13.715Z,98319.89
2018-12-13T02:44:44.650Z,98311.14
2018-12-13T02:47:15.597Z,98310.86
2018-12-13T02:49:46.519Z,98310.19
2018-12-13T02:52:17.729Z,98300.78
2018-12-13T02:54:48.607Z,98301.20
2018-12-13T02:57:19.528Z,98296.66
2018-12-13T02:59:50.490Z,98293.92
2018-12-13T03:02:21.410Z,98287.84
2018-12-13T03:04:52.570Z,98292.36
2018-12-13T03:07:23.479Z,98288.66
2018-12-13T03:09:55.660Z,98276.41
2018-12-13T03:12:26.483Z,98282.62
2018-12-13T03:14:57.651Z,98291.07
2018-12-13T03:17:28.558Z,98287.22
2018-12-13T03:19:59.430Z,98289.46
2018-12-13T03:22:30.541Z,98291.90
2018-12-13T03:25:01.562Z,98288.09
2018-12-13T03:27:32.738Z,98284.91
2018-12-13T03:30:03.671Z,98279.41
2018-12-13T03:32:34.838Z,98274.55
2018-12-13T03:35:07.592Z,98279.65
2018-12-13T03:37:39.510Z,98274.55
2018-12-13T03:40:10.880Z,98274.52
2018-12-13T03:42:41.747Z,98267.14
2018-12-13T03:45:13.289Z,98265.90
2018-12-13T03:47:44.247Z,98264.91
2018-12-13T03:50:15.988Z,98260.31
2018-12-13T03:52:46.925Z,98261.92
2018-12-13T03:55:17.755Z,98264.82
2018-12-13T03:57:48.606Z,98260.93
2018-12-13T04:00:19.941Z,98261.45
2018-12-13T04:02:50.898Z,98259.75
2018-12-13T04:05:21.796Z,98260.75
2018-12-13T04:07:52.779Z,98258.47
2018-12-13T04:10:23.931Z,98254.79
2018-12-13T04:12:54.862Z,98258.01
2018-12-13T04:15:25.754Z,98250.67
2018-12-13T04:17:57.342Z,98240.78
2018-12-13T04:20:29.885Z,98233.84
2018-12-13T04:23:00.758Z,98240.22
2018-12-13T04:25:31.844Z,98229.05
2018-12-13T04:28:02.747Z,98231.80
2018-12-13T04:30:34.781Z,98227.06
2018-12-13T04:33:05.767Z,98221.43
2018-12-13T04:35:36.650Z,98217.20
2018-12-13T04:38:07.842Z,98215.60
2018-12-13T04:40:38.694Z,98216.43
2018-12-13T04:43:09.585Z,98224.59
2018-12-13T04:45:40.567Z,98209.09
2018-12-13T04:48:11.446Z,98207.35
2018-12-13T04:50:42.802Z,98205.33
2018-12-13T04:53:13.771Z,98209.86
2018-12-13T04:55:44.674Z,98203.35
2018-12-13T04:58:15.614Z,98202.90
2018-12-13T05:00:46.590Z,98191.66
2018-12-13T05:03:17.475Z,98203.77
2018-12-13T05:05:48.426Z,98202.31
2018-12-13T05:08:19.353Z,98196.44
2018-12-13T05:10:55.231Z,98188.23
2018-12-13T05:13:26.145Z,98192.59
2018-12-13T05:15:57.101Z,98184.59
2018-12-13T05:18:28.074Z,98181.34
2018-12-13T05:20:59.021Z,98175.66
2018-12-13T05:23:29.906Z,98174.69
2018-12-13T05:26:00.852Z,98170.30
2018-12-13T05:28:32.198Z,98176.80
2018-12-13T05:31:03.061Z,98171.67
2018-12-13T05:33:34.300Z,98165.20
2018-12-13T05:36:05.401Z,98171.53
2018-12-13T05:38:36.282Z,98165.70
2018-12-13T05:41:07.121Z,98175.20
2018-12-13T05:43:38.023Z,98168.14
2018-12-13T05:46:08.970Z,98171.06
2018-12-13T05:48:40.226Z,98173.27
2018-12-13T05:51:11.169Z,98176.77
2018-12-13T05:53:42.082Z,98178.09
2018-12-13T05:56:13.509Z,98172.91
2018-12-13T05:58:44.382Z,98177.91
2018-12-13T06:01:15.326Z,98176.40
2018-12-13T06:03:46.312Z,98173.30
2018-12-13T06:06:17.333Z,98181.91
2018-12-13T06:08:48.755Z,98176.62
2018-12-13T06:11:19.670Z,98183.77
2018-12-13T06:13:56.948Z,98182.36
2018-12-13T06:16:27.969Z,98181.91
2018-12-13T06:18:59.232Z,98178.02
2018-12-13T06:21:36.559Z,98177.14
2018-12-13T06:24:03.289Z,98174.78
2018-12-13T06:26:34.146Z,98173.00
2018-12-13T06:29:05.565Z,98175.84
2018-12-13T06:31:36.475Z,98179.05
2018-12-13T06:34:07.946Z,98179.05
2018-12-13T06:36:38.877Z,98177.95
2018-12-13T06:39:10.552Z,98176.48
2018-12-13T06:41:41.480Z,98179.25
2018-12-13T06:44:12.398Z,98182.91
2018-12-13T06:46:43.442Z,98173.73
2018-12-13T06:49:14.393Z,98178.36
2018-12-13T06:51:45.329Z,98176.07
2018-12-13T06:54:16.361Z,98181.52
2018-12-13T06:56:47.309Z,98175.70
2018-12-13T06:59:18.230Z,98180.47
2018-12-13T07:01:49.186Z,98179.64
2018-12-13T07:04:20.109Z,98176.16
2018-12-13T07:06:51.162Z,98178.64
2018-12-13T07:09:22.001Z,98182.91
2018-12-13T07:11:52.946Z,98186.70
2018-12-13T07:14:23.839Z,98185.73
2018-12-13T07:16:56.345Z,98190.88
2018-12-13T07:19:27.281Z,98196.14
2018-12-13T07:21:58.233Z,98178.06
2018-12-13T07:24:29.256Z,98180.08
2018-12-13T07:27:00.193Z,98183.89
2018-12-13T07:29:32.173Z,98187.55
2018-12-13T07:32:03.101Z,98186.98
2018-12-13T07:34:34.121Z,98180.70
2018-12-13T07:37:05.480Z,98187.76
2018-12-13T07:39:36.441Z,98179.55
2018-12-13T07:42:07.761Z,98178.52
2018-12-13T07:44:38.750Z,98181.30
2018-12-13T07:47:09.645Z,98178.89
2018-12-13T07:49:40.589Z,98177.34
2018-12-13T07:52:11.519Z,98178.06
2018-12-13T07:54:42.669Z,98180.06
2018-12-13T07:57:13.554Z,98180.01
2018-12-13T07:59:44.429Z,98174.58
2018-12-13T08:02:15.378Z,98179.52
2018-12-13T08:04:46.322Z,98174.27
2018-12-13T08:07:17.257Z,98172.91
2018-12-13T08:09:48.113Z,98167.81
2018-12-13T08:12:19.442Z,98175.54
2018-12-13T08:14:50.287Z,98173.74
2018-12-13T08:17:21.312Z,98167.94
2018-12-13T08:19:54.087Z,98174.97
2018-12-13T08:22:25.038Z,98164.48
2018-12-13T08:24:55.882Z,98165.89
2018-12-13T08:27:26.822Z,98167.84
2018-12-13T08:29:57.660Z,98160.94
2018-12-13T08:32:29.109Z,98159.88
2018-12-13T08:35:00.018Z,98161.80
2018-12-13T08:37:30.978Z,98157.59
2018-12-13T08:40:02.018Z,98150.38
2018-12-13T08:42:34.167Z,98150.86
2018-12-13T08:45:06.434Z,98152.02
2018-12-13T08:47:37.274Z,98146.89
2018-12-13T08:50:09.302Z,98147.00
2018-12-13T08:52:40.173Z,98149.75
2018-12-13T08:55:11.126Z,98149.55
2018-12-13T08:57:42.073Z,98145.25
2018-12-13T09:00:13.418Z,98144.08
2018-12-13T09:02:44.278Z,98147.56
2018-12-13T09:05:15.199Z,98140.93
2018-12-13T09:07:46.193Z,98138.52
2018-12-13T09:10:17.051Z,98143.08
2018-12-13T09:12:47.987Z,98132.75
2018-12-13T09:15:19.840Z,98133.52
2018-12-13T09:17:51.091Z,98132.13
2018-12-13T09:20:22.121Z,98134.31
2018-12-13T09:22:53.086Z,98126.34
2018-12-13T09:25:24.221Z,98132.93
2018-12-13T09:27:55.161Z,98125.22
2018-12-13T09:30:26.086Z,98127.84
2018-12-13T09:32:57.050Z,98133.28
2018-12-13T09:35:27.897Z,98125.52
2018-12-13T09:37:58.962Z,98129.38
2018-12-13T09:40:29.834Z,98123.36
2018-12-13T09:43:00.809Z,98127.06
2018-12-13T09:45:31.724Z,98127.42
2018-12-13T09:48:02.661Z,98134.06
2018-12-13T09:50:33.579Z,98133.99
2018-12-13T09:53:04.543Z,98122.86
2018-12-13T09:55:35.394Z,98116.27
2018-12-13T09:58:06.618Z,98116.80
2018-12-13T10:00:37.577Z,98124.97
2018-12-13T10:03:08.770Z,98116.13
2018-12-13T10:05:39.645Z,98105.66
2018-12-13T10:08:10.510Z,98107.69
2018-12-13T10:10:41.428Z,98102.59
2018-12-13T10:13:12.317Z,98097.52
2018-12-13T10:15:43.588Z,98093.61
2018-12-13T10:18:15.805Z,98094.31
2018-12-13T10:20:46.944Z,98089.18
2018-12-13T10:23:17.825Z,98086.91
2018-12-13T10:25:49.069Z,98087.32
2018-12-13T10:28:19.914Z,98087.02
2018-12-13T10:30:50.868Z,98092.25
2018-12-13T10:33:21.712Z,98085.27
2018-12-13T10:35:52.574Z,98096.83
2018-12-13T10:38:23.449Z,98090.63
2018-12-13T10:40:54.542Z,98081.82
2018-12-13T10:43:25.642Z,98085.98
2018-12-13T10:45:57.078Z,98082.95
2018-12-13T10:48:27.946Z,98080.00
2018-12-13T10:50:58.778Z,98079.72
2018-12-13T10:53:30.739Z,98075.50
2018-12-13T10:56:01.746Z,98081.06
2018-12-13T10:58:32.733Z,98068.48
2018-12-13T11:01:08.886Z,98069.39
2018-12-13T11:03:39.727Z,98054.70
2018-12-13T11:06:10.642Z,98057.82
2018-12-13T11:08:41.601Z,98051.88
2018-12-13T11:11:12.509Z,98057.81
2018-12-13T11:13:43.453Z,98058.30
2018-12-13T11:16:14.491Z,98058.95
2018-12-13T11:18:45.437Z,98058.69
2018-12-13T11:21:17.471Z,98059.52
2018-12-13T11:23:48.845Z,98054.62
2018-12-13T11:26:19.894Z,98058.63
2018-12-13T11:30:35.133Z,98058.07
2018-12-13T11:33:06.315Z,98066.96
2018-12-13T11:35:37.263Z,98059.76
2018-12-13T11:38:09.356Z,98058.20
2018-12-13T11:40:40.310Z,98054.30
2018-12-13T11:43:11.431Z,98055.67
2018-12-13T11:45:42.506Z,98051.06
2018-12-13T11:48:13.401Z,98052.66
2018-12-13T11:50:44.304Z,98052.94
2018-12-13T11:53:15.270Z,98054.00
2018-12-13T11:55:47.314Z,98048.86
2018-12-13T11:58:18.840Z,98051.08
2018-12-13T12:00:49.701Z,98046.51
2018-12-13T12:03:20.666Z,98043.08
2018-12-13T12:05:51.665Z,98049.02
2018-12-13T12:08:23.656Z,98040.29
2018-12-13T12:10:54.613Z,98034.20
2018-12-13T12:13:25.521Z,98037.40
2018-12-13T12:15:56.874Z,98042.98
2018-12-13T12:18:28.033Z,98042.45
2018-12-13T12:20:58.942Z,98036.63
2018-12-13T12:23:29.901Z,98043.83
2018-12-13T12:26:00.850Z,98040.38
2018-12-13T12:28:31.762Z,98035.12
2018-12-13T12:31:02.704Z,98040.72
2018-12-13T12:33:33.634Z,98039.38
2018-12-13T12:36:04.625Z,98043.61
2018-12-13T12:38:35.838Z,98041.87
2018-12-13T12:41:06.898Z,98042.59
2018-12-13T12:43:38.091Z,98045.52
2018-12-13T12:46:08.973Z,98043.52
2018-12-13T12:48:39.846Z,98036.75
2018-12-13T12:51:10.791Z,98043.83
2018-12-13T12:53:41.662Z,98037.89
2018-12-13T12:56:12.537Z,98041.16
2018-12-13T12:58:43.434Z,98033.38
2018-12-13T13:01:14.302Z,98031.81
2018-12-13T13:03:45.141Z,98028.84
2018-12-13T13:06:16.222Z,98027.78
2018-12-13T13:08:47.309Z,98033.45
2018-12-13T13:11:18.203Z,98043.39
2018-12-13T13:13:49.593Z,98034.27
2018-12-13T13:16:20.606Z,98033.66
2018-12-13T13:18:51.570Z,98040.48
2018-12-13T13:21:22.477Z,98035.80
2018-12-13T13:23:53.645Z,98030.09
2018-12-13T13:26:24.562Z,98027.97
2018-12-13T13:28:55.518Z,98033.39
2018-12-13T13:31:26.427Z,98026.27
2018-12-13T13:33:57.410Z,98023.70
2018-12-13T13:36:29.143Z,98026.78
2018-12-13T13:39:00.089Z,98024.05
2018-12-13T13:41:31.002Z,98026.74
2018-12-13T13:44:01.974Z,98029.20
2018-12-13T13:46:32.815Z,98026.34
2018-12-13T13:49:03.787Z,98025.11
2018-12-13T13:51:35.298Z,98028.58
2018-12-13T13:54:06.423Z,98022.26
2018-12-13T13:56:37.353Z,98021.88
2018-12-13T13:59:08.718Z,98026.62
2018-12-13T14:01:39.622Z,98019.36
2018-12-13T14:06:46.762Z,98021.63
2018-12-13T14:09:17.690Z,98019.23
2018-12-13T14:11:48.630Z,98017.80
2018-12-13T14:14:19.549Z,98020.75
2018-12-13T14:16:50.622Z,98021.00
2018-12-13T14:19:21.547Z,98018.77
2018-12-13T14:21:53.468Z,98022.58
2018-12-13T14:24:24.631Z,98022.03
2018-12-13T14:26:55.890Z,98021.52
2018-12-13T14:29:26.923Z,98019.89
2018-12-13T14:31:58.136Z,98021.80
2018-12-13T14:34:28.986Z,98021.80
2018-12-13T14:37:00.234Z,98019.72
2018-12-13T14:39:31.167Z,98016.55
2018-12-13T14:42:05.243Z,98018.61
2018-12-13T14:44:43.651Z,98021.95
2018-12-13T14:47:14.600Z,98023.58
2018-12-13T14:49:45.650Z,98018.09
2018-12-13T14:52:16.657Z,98023.12
2018-12-13T14:54:47.577Z,98026.75
2018-12-13T14:57:18.722Z,98018.02
2018-12-13T14:59:50.135Z,98024.69
2018-12-13T15:02:21.206Z,98023.23
2018-12-13T15:04:54.399Z,98020.08
2018-12-13T15:07:25.339Z,98029.44
2018-12-13T15:09:56.682Z,98028.44
2018-12-13T15:12:27.607Z,98034.87
2018-12-13T15:14:58.594Z,98021.48
2018-12-13T15:17:29.482Z,98026.61
2018-12-13T15:20:00.518Z,98030.44
2018-12-13T15:22:31.440Z,98027.27
2018-12-13T15:25:04.383Z,98030.61
2018-12-13T15:27:35.569Z,98033.18
2018-12-13T15:30:10.178Z,98027.17
2018-12-13T15:32:41.017Z,98023.86
2018-12-13T15:35:12.644Z,98022.63
2018-12-13T15:37:43.737Z,98029.09
2018-12-13T15:40:14.702Z,98027.58
2018-12-13T15:42:45.582Z,98029.30
2018-12-13T15:45:17.206Z,98028.23
2018-12-13T15:47:48.134Z,98031.15
2018-12-13T15:50:19.308Z,98023.78
2018-12-13T15:52:52.614Z,98032.92
2018-12-13T15:55:23.478Z,98032.01
2018-12-13T15:57:55.057Z,98033.87
2018-12-13T16:00:26.010Z,98036.61
2018-12-13T16:02:57.360Z,98036.73
2018-12-13T16:05:28.383Z,98028.13
2018-12-13T16:07:59.408Z,98031.06
2018-12-13T16:10:31.493Z,98031.98
2018-12-13T16:13:02.736Z,98029.30
2018-12-13T16:15:34.150Z,98029.30
2018-12-13T16:18:05.522Z,98032.58
2018-12-13T16:20:36.879Z,98033.05
2018-12-13T16:23:07.746Z,98031.95
2018-12-13T16:25:38.671Z,98029.27
2018-12-13T16:28:09.714Z,98037.27
2018-12-13T16:30:40.716Z,98035.86
2018-12-13T16:33:12.818Z,98029.48
2018-12-13T16:35:43.737Z,98038.38
2018-12-13T16:38:14.723Z,98031.17
2018-12-13T16:40:46.006Z,98031.00
2018-12-13T16:43:17.273Z,98030.06
2018-12-13T16:45:48.185Z,98033.06
2018-12-13T16:48:19.128Z,98030.23
2018-12-13T16:50:50.281Z,98030.95
2018-12-13T16:53:21.249Z,98031.47
2018-12-13T16:55:52.162Z,98027.72
2018-12-13T16:58:23.037Z,98021.12
2018-12-13T17:00:54.049Z,98031.06
2018-12-13T17:03:38.662Z,98025.29
2018-12-13T17:08:58.931Z,98033.09
2018-12-13T17:11:29.832Z,98036.29
2018-12-13T17:14:00.738Z,98032.20
2018-12-13T17:16:31.610Z,98035.00
2018-12-13T17:19:02.461Z,98034.89
2018-12-13T17:21:33.343Z,98028.17
2018-12-13T17:24:04.237Z,98020.75
2018-12-13T17:26:35.126Z,98026.55
2018-12-13T17:29:06.176Z,98033.61
2018-12-13T17:31:37.014Z,98029.30
2018-12-13T17:34:07.878Z,98027.80
2018-12-13T17:36:40.042Z,98029.63
2018-12-13T17:39:11.341Z,98023.03
2018-12-13T17:41:42.212Z,98022.09
2018-12-13T17:44:13.077Z,98024.43
2018-12-13T17:46:43.985Z,98023.48
2018-12-13T17:49:15.272Z,98019.46
2018-12-13T17:51:46.305Z,98020.34
2018-12-13T17:54:17.167Z,98021.27
2018-12-13T17:56:49.438Z,98023.78
2018-12-13T17:59:22.446Z,98021.97
2018-12-13T18:01:53.433Z,98019.98
2018-12-13T18:04:24.340Z,98027.32
2018-12-13T18:06:55.218Z,98023.72
2018-12-13T18:09:26.110Z,98022.92
2018-12-13T18:11:57.134Z,98022.44
2018-12-13T18:14:28.093Z,98018.83
2018-12-13T18:17:00.994Z,98014.58
2018-12-13T18:19:31.914Z,98024.20
2018-12-13T18:22:02.941Z,98027.44
2018-12-13T18:24:33.890Z,98026.72
2018-12-13T18:27:04.813Z,98037.38
2018-12-13T18:29:36.829Z,98035.44
2018-12-13T18:32:07.946Z,98035.15
2018-12-13T18:34:39.395Z,98030.75
2018-12-13T18:37:10.373Z,98030.81
2018-12-13T18:39:41.298Z,98032.58
2018-12-13T18:42:12.314Z,98031.06
2018-12-13T18:44:43.553Z,98029.61
2018-12-13T18:47:14.565Z,98029.61
2018-12-13T18:49:45.693Z,98024.58
2018-12-13T18:52:16.822Z,98021.80
2018-12-13T18:54:47.686Z,98019.66
2018-12-13T18:57:19.058Z,98025.06
2018-12-13T18:59:50.990Z,98028.01
2018-12-13T19:02:23.196Z,98030.92
2018-12-13T19:04:54.410Z,98036.63
2018-12-13T19:07:25.885Z,98033.38
2018-12-13T19:09:56.806Z,98038.92
2018-12-13T19:12:28.567Z,98037.63
2018-12-13T19:14:59.483Z,98042.55
2018-12-13T19:17:30.383Z,98042.66
2018-12-13T19:20:01.266Z,98042.77
2018-12-13T19:22:33.256Z,98042.92
2018-12-13T19:25:05.718Z,98039.09
2018-12-13T19:27:37.897Z,98035.73
2018-12-13T19:30:11.009Z,98037.14
2018-12-13T19:32:41.927Z,98042.55
2018-12-13T19:35:19.211Z,98038.09
2018-12-13T19:37:45.750Z,98038.31
2018-12-13T19:40:16.698Z,98037.80
2018-12-13T19:42:47.726Z,98041.49
2018-12-13T19:45:18.747Z,98046.45
2018-12-13T19:47:50.430Z,98047.96
2018-12-13T19:50:21.348Z,98051.50
2018-12-13T19:52:52.707Z,98047.87
2018-12-13T19:55:23.686Z,98051.88
2018-12-13T19:57:54.690Z,98045.80
2018-12-13T20:00:25.589Z,98050.59
2018-12-13T20:02:56.970Z,98048.98
2018-12-13T20:05:29.034Z,98053.38
2018-12-13T20:08:00.306Z,98061.49
2018-12-13T20:10:31.254Z,98051.28
2018-12-13T20:13:02.142Z,98067.15
2018-12-13T20:15:33.070Z,98060.83
2018-12-13T20:18:03.958Z,98060.42
2018-12-13T20:20:35.161Z,98058.05
2018-12-13T20:23:06.090Z,98065.75
2018-12-13T20:25:37.445Z,98060.82
2018-12-13T20:28:08.470Z,98070.06
2018-12-13T20:30:40.670Z,98067.15
2018-12-13T20:33:11.687Z,98074.59
2018-12-13T20:35:42.724Z,98074.38
2018-12-13T20:38:14.874Z,98071.29
2018-12-13T20:40:46.986Z,98064.56
2018-12-13T20:43:18.725Z,98061.17
2018-12-13T20:45:49.641Z,98063.98
2018-12-13T20:48:20.521Z,98066.14
2018-12-13T20:50:51.431Z,98072.63
2018-12-13T20:53:22.394Z,98074.69
2018-12-13T20:55:53.319Z,98065.16
2018-12-13T20:58:24.279Z,98069.44
2018-12-13T21:00:55.196Z,98065.91
2018-12-13T21:03:26.035Z,98077.00
2018-12-13T21:05:57.094Z,98078.20
2018-12-13T21:08:28.765Z,98084.36
2018-12-13T21:10:59.689Z,98082.78
2018-12-13T21:13:30.550Z,98085.47
2018-12-13T21:16:02.331Z,98085.36
2018-12-13T21:18:34.023Z,98091.57
2018-12-13T21:21:05.333Z,98097.06
2018-12-13T21:23:36.198Z,98095.10
2018-12-13T21:26:07.054Z,98090.30
2018-12-13T21:28:38.879Z,98092.61
2018-12-13T21:31:09.749Z,98093.94
2018-12-13T21:33:40.910Z,98095.16
2018-12-13T21:36:11.787Z,98087.18
2018-12-13T21:38:42.700Z,98090.36
2018-12-13T21:41:13.817Z,98085.89
2018-12-13T21:43:45.058Z,98095.16
2018-12-13T21:46:15.962Z,98095.37
2018-12-13T21:48:46.855Z,98092.38
2018-12-13T21:51:18.239Z,98098.16
2018-12-13T21:53:49.082Z,98095.48
2018-12-13T21:56:19.957Z,98093.61
2018-12-13T21:58:50.827Z,98094.59
2018-12-13T22:01:21.744Z,98094.47
2018-12-13T22:03:52.713Z,98095.75
2018-12-13T22:06:23.706Z,98106.69
2018-12-13T22:08:54.605Z,98103.77
2018-12-13T22:11:25.499Z,98108.13
2018-12-13T22:13:56.371Z,98106.58
2018-12-13T22:16:28.378Z,98106.52
2018-12-13T22:18:59.263Z,98105.08
2018-12-13T22:21:30.415Z,98106.78
2018-12-13T22:24:01.365Z,98103.79
2018-12-13T22:26:33.206Z,98106.84
2018-12-13T22:29:04.277Z,98105.91
2018-12-13T22:31:35.507Z,98104.51
2018-12-13T22:34:06.405Z,98104.45
2018-12-13T22:36:38.228Z,98105.23
2018-12-13T22:39:09.974Z,98100.48
2018-12-13T22:41:40.919Z,98104.45
2018-12-13T22:44:12.636Z,98105.91
2018-12-13T22:46:43.587Z,98101.91
2018-12-13T22:49:14.423Z,98104.22
2018-12-13T22:51:45.353Z,98104.48
2018-12-13T22:54:16.421Z,98107.41
2018-12-13T22:56:47.279Z,98105.98
2018-12-13T22:59:19.610Z,98114.26
2018-12-13T23:01:50.525Z,98114.20
2018-12-13T23:04:22.622Z,98116.94
2018-12-13T23:06:53.526Z,98108.97
2018-12-13T23:09:25.711Z,98105.25
2018-12-13T23:11:58.066Z,98114.94
2018-12-13T23:14:32.902Z,98108.97
2018-12-13T23:17:03.837Z,98115.29
2018-12-13T23:19:36.028Z,98116.47
2018-12-13T23:22:07.052Z,98117.66
2018-12-13T23:24:38.215Z,98127.32
2018-12-13T23:27:12.340Z,98122.08
2018-12-13T23:29:43.948Z,98123.71
2018-12-13T23:32:15.848Z,98130.41
2018-12-13T23:34:46.861Z,98127.78
2018-12-13T23:37:19.037Z,98129.88
2018-12-13T23:39:49.975Z,98136.88
2018-12-13T23:42:21.901Z,98129.77
2018-12-13T23:44:52.837Z,98126.64
2018-12-13T23:47:24.090Z,98133.06
2018-12-13T23:49:56.056Z,98130.76
2018-12-13T23:52:27.010Z,98131.32
2018-12-13T23:54:58.074Z,98131.59
2018-12-13T23:57:29.507Z,98129.69
